createdAt,value
2018-09-09T00:01:08.255Z,80.60
2018-09-09T00:03:37.083Z,80.10
2018-09-09T00:06:05.957Z,81.80
2018-09-09T00:08:34.854Z,80.40
2018-09-09T00:11:03.688Z,79.20
2018-09-09T00:13:32.510Z,79.40
2018-09-09T00:16:01.447Z,79.60
2018-09-09T00:18:30.297Z,80.60
2018-09-09T00:20:59.117Z,80.60
2018-09-09T00:23:28.031Z,79.70
2018-09-09T00:25:56.849Z,79.60
2018-09-09T00:28:25.711Z,78.90
2018-09-09T00:30:54.607Z,78.80
2018-09-09T00:33:23.440Z,79.40
2018-09-09T00:35:52.271Z,78.80
2018-09-09T00:38:21.156Z,79.40
2018-09-09T00:40:50.016Z,78.60
2018-09-09T00:43:18.848Z,79.00
2018-09-09T00:45:47.787Z,78.80
2018-09-09T00:48:16.609Z,78.40
2018-09-09T00:50:50.803Z,79.00
2018-09-09T00:53:24.886Z,78.40
2018-09-09T00:55:53.796Z,78.70
2018-09-09T00:58:22.616Z,77.30
2018-09-09T01:00:56.689Z,77.90
2018-09-09T01:03:25.516Z,77.80
2018-09-09T01:05:54.381Z,78.50
2018-09-09T01:08:23.229Z,77.70
2018-09-09T01:10:52.040Z,78.10
2018-09-09T01:13:20.847Z,77.20
2018-09-09T01:15:49.711Z,77.30
2018-09-09T01:18:18.566Z,77.50
2018-09-09T01:20:47.399Z,77.90
2018-09-09T01:23:16.311Z,76.40
2018-09-09T01:25:45.204Z,77.90
2018-09-09T01:28:14.104Z,77.30
2018-09-09T01:30:43.014Z,77.30
2018-09-09T01:33:11.843Z,76.70
2018-09-09T01:35:40.678Z,77.10
2018-09-09T01:38:09.539Z,77.40
2018-09-09T01:40:38.346Z,78.10
2018-09-09T01:43:07.211Z,77.70
2018-09-09T01:45:36.072Z,78.70
2018-09-09T01:48:04.943Z,78.20
2018-09-09T01:50:33.780Z,78.30
2018-09-09T01:53:02.944Z,77.20
2018-09-09T01:55:31.783Z,76.90
2018-09-09T01:58:00.592Z,76.50
2018-09-09T02:00:29.534Z,77.10
2018-09-09T02:02:58.368Z,77.10
2018-09-09T02:05:27.214Z,77.60
2018-09-09T02:07:56.109Z,78.20
2018-09-09T02:10:24.929Z,78.70
2018-09-09T02:12:53.756Z,79.20
2018-09-09T02:15:22.634Z,79.00
2018-09-09T02:17:51.467Z,78.40
2018-09-09T02:20:20.310Z,77.70
2018-09-09T02:22:49.169Z,77.50
2018-09-09T02:25:18.067Z,77.10
2018-09-09T02:27:46.960Z,77.30
2018-09-09T02:30:15.901Z,77.70
2018-09-09T02:32:44.728Z,77.30
2018-09-09T02:35:13.576Z,77.70
2018-09-09T02:37:42.449Z,76.70
2018-09-09T02:40:11.285Z,77.10
2018-09-09T02:42:40.091Z,77.40
2018-09-09T02:45:08.958Z,77.50
2018-09-09T02:47:37.776Z,76.80
2018-09-09T02:50:06.737Z,76.90
2018-09-09T02:52:35.648Z,78.30
2018-09-09T02:55:04.460Z,78.10
2018-09-09T02:57:33.300Z,77.90
2018-09-09T03:00:02.176Z,78.10
2018-09-09T03:02:31.034Z,78.20
2018-09-09T03:04:59.877Z,78.10
2018-09-09T03:07:28.731Z,78.60
2018-09-09T03:09:57.551Z,79.60
2018-09-09T03:12:26.382Z,78.40
2018-09-09T03:14:55.261Z,78.40
2018-09-09T03:17:24.172Z,78.50
2018-09-09T03:19:53.118Z,77.90
2018-09-09T03:22:22.041Z,77.40
2018-09-09T03:24:50.879Z,77.30
2018-09-09T03:27:19.693Z,77.30
2018-09-09T03:29:48.639Z,77.80
2018-09-09T03:32:17.489Z,77.50
2018-09-09T03:34:46.294Z,77.30
2018-09-09T03:37:15.184Z,77.10
2018-09-09T03:39:44.011Z,77.50
2018-09-09T03:42:12.826Z,77.70
2018-09-09T03:44:41.741Z,77.70
2018-09-09T03:47:10.599Z,78.50
2018-09-09T03:49:39.494Z,77.60
2018-09-09T03:52:08.348Z,78.10
2018-09-09T03:54:37.159Z,78.40
2018-09-09T03:57:05.979Z,79.10
2018-09-09T03:59:34.832Z,78.40
2018-09-09T04:02:03.670Z,77.60
2018-09-09T04:04:32.512Z,77.70
2018-09-09T04:07:01.355Z,77.70
2018-09-09T04:09:30.205Z,78.60
2018-09-09T04:11:59.023Z,78.10
2018-09-09T04:14:28.028Z,77.60
2018-09-09T04:16:56.841Z,77.80
2018-09-09T04:19:25.715Z,78.10
2018-09-09T04:21:54.608Z,77.80
2018-09-09T04:24:24.201Z,77.70
2018-09-09T04:26:53.015Z,77.90
2018-09-09T04:29:21.932Z,77.90
2018-09-09T04:31:50.827Z,78.10
2018-09-09T04:34:19.676Z,78.10
2018-09-09T04:36:48.615Z,78.20
2018-09-09T04:39:17.441Z,78.00
2018-09-09T04:41:46.256Z,78.00
2018-09-09T04:44:15.142Z,78.70
2018-09-09T04:46:44.115Z,77.60
2018-09-09T04:49:12.949Z,77.80
2018-09-09T04:51:41.804Z,77.70
2018-09-09T04:54:10.653Z,78.20
2018-09-09T04:56:39.484Z,78.30
2018-09-09T04:59:08.367Z,78.80
2018-09-09T05:01:37.205Z,78.80
2018-09-09T05:04:06.033Z,78.60
2018-09-09T05:06:34.950Z,78.40
2018-09-09T05:09:04.151Z,78.60
2018-09-09T05:11:33.032Z,79.00
2018-09-09T05:14:02.106Z,79.10
2018-09-09T05:16:30.915Z,78.40
2018-09-09T05:18:59.797Z,79.20
2018-09-09T05:21:28.657Z,78.70
2018-09-09T05:23:57.481Z,79.30
2018-09-09T05:26:26.303Z,79.80
2018-09-09T05:28:55.175Z,79.40
2018-09-09T05:31:24.015Z,79.40
2018-09-09T05:33:52.881Z,79.10
2018-09-09T05:36:21.739Z,79.00
2018-09-09T05:38:50.565Z,79.20
2018-09-09T05:41:19.396Z,79.00
2018-09-09T05:43:48.268Z,79.50
2018-09-09T05:46:17.095Z,79.10
2018-09-09T05:48:46.457Z,78.90
2018-09-09T05:51:15.316Z,78.30
2018-09-09T05:53:44.200Z,78.90
2018-09-09T05:56:13.044Z,79.80
2018-09-09T05:58:41.959Z,78.90
2018-09-09T06:01:10.816Z,79.50
2018-09-09T06:03:39.692Z,78.80
2018-09-09T06:06:08.541Z,79.00
2018-09-09T06:08:37.517Z,78.90
2018-09-09T06:11:06.681Z,79.30
2018-09-09T06:13:35.576Z,79.60
2018-09-09T06:16:04.493Z,79.80
2018-09-09T06:18:33.336Z,79.50
2018-09-09T06:21:02.152Z,79.50
2018-09-09T06:23:33.180Z,80.00
2018-09-09T06:26:02.021Z,80.70
2018-09-09T06:28:30.904Z,80.70
2018-09-09T06:30:59.834Z,80.70
2018-09-09T06:33:28.965Z,80.90
2018-09-09T06:35:57.783Z,81.60
2018-09-09T06:38:26.600Z,80.50
2018-09-09T06:40:55.589Z,80.10
2018-09-09T06:43:24.419Z,80.00
2018-09-09T06:45:53.582Z,79.50
2018-09-09T06:48:22.447Z,79.60
2018-09-09T06:50:51.298Z,79.40
2018-09-09T06:53:20.169Z,80.00
2018-09-09T06:55:48.983Z,79.70
2018-09-09T06:58:17.816Z,79.50
2018-09-09T07:00:46.776Z,79.20
2018-09-09T07:03:15.588Z,78.90
2018-09-09T07:05:44.563Z,78.60
2018-09-09T07:08:13.521Z,80.00
2018-09-09T07:10:42.581Z,78.80
2018-09-09T07:13:11.489Z,79.90
2018-09-09T07:15:40.437Z,78.60
2018-09-09T07:18:09.247Z,79.10
2018-09-09T07:20:40.652Z,79.80
2018-09-09T07:23:09.486Z,80.10
2018-09-09T07:25:39.036Z,80.00
2018-09-09T07:28:11.373Z,80.90
2018-09-09T07:30:40.264Z,80.50
2018-09-09T07:33:09.108Z,80.80
2018-09-09T07:35:38.297Z,80.30
2018-09-09T07:38:07.172Z,79.80
2018-09-09T07:40:36.102Z,79.50
2018-09-09T07:43:05.869Z,79.00
2018-09-09T07:45:34.792Z,78.60
2018-09-09T07:48:03.677Z,78.20
2018-09-09T07:50:32.538Z,77.90
2018-09-09T07:53:01.513Z,78.10
2018-09-09T07:55:30.349Z,77.70
2018-09-09T07:57:59.227Z,77.30
2018-09-09T08:00:28.123Z,77.10
2018-09-09T08:02:57.080Z,77.20
2018-09-09T08:05:26.076Z,77.60
2018-09-09T08:07:55.224Z,77.80
2018-09-09T08:10:24.078Z,78.10
2018-09-09T08:12:53.035Z,77.60
2018-09-09T08:15:21.917Z,77.30
2018-09-09T08:17:50.769Z,77.10
2018-09-09T08:20:19.724Z,76.80
2018-09-09T08:22:48.679Z,76.70
2018-09-09T08:25:17.523Z,76.20
2018-09-09T08:27:46.458Z,76.00
2018-09-09T08:30:15.545Z,75.50
2018-09-09T08:32:44.551Z,75.30
2018-09-09T08:35:13.455Z,75.30
2018-09-09T08:37:42.397Z,75.40
2018-09-09T08:40:11.371Z,75.50
2018-09-09T08:42:40.259Z,75.40
2018-09-09T08:45:09.560Z,75.60
2018-09-09T08:47:38.544Z,75.50
2018-09-09T08:50:08.657Z,75.40
2018-09-09T08:52:37.513Z,75.30
2018-09-09T08:55:06.452Z,75.50
2018-09-09T08:57:35.341Z,75.80
2018-09-09T09:00:04.327Z,76.00
2018-09-09T09:02:33.902Z,76.40
2018-09-09T09:05:02.879Z,76.50
2018-09-09T09:07:31.832Z,76.60
2018-09-09T09:10:00.712Z,74.30
2018-09-09T09:12:29.595Z,76.80
2018-09-09T09:14:58.440Z,78.00
2018-09-09T09:17:27.872Z,77.60
2018-09-09T09:19:56.796Z,77.70
2018-09-09T09:22:25.627Z,77.30
2018-09-09T09:24:54.527Z,78.00
2018-09-09T09:27:23.515Z,76.90
2018-09-09T09:29:58.426Z,76.90
2018-09-09T09:32:27.238Z,77.10
2018-09-09T09:34:56.765Z,77.70
2018-09-09T09:37:26.536Z,76.70
2018-09-09T09:39:56.220Z,76.20
2018-09-09T09:42:25.570Z,73.90
2018-09-09T09:44:54.528Z,75.00
2018-09-09T09:47:23.396Z,75.50
2018-09-09T09:49:52.256Z,75.00
2018-09-09T09:52:21.090Z,74.30
2018-09-09T09:54:49.968Z,74.30
2018-09-09T09:57:18.869Z,74.00
2018-09-09T09:59:47.744Z,74.80
2018-09-09T10:02:16.667Z,74.60
2018-09-09T10:04:45.722Z,75.20
2018-09-09T10:07:14.589Z,74.90
2018-09-09T10:09:43.512Z,74.90
2018-09-09T10:12:12.349Z,74.70
2018-09-09T10:14:41.172Z,74.30
2018-09-09T10:17:10.064Z,74.00
2018-09-09T10:19:39.057Z,73.80
2018-09-09T10:22:07.940Z,73.70
2018-09-09T10:24:36.762Z,72.40
2018-09-09T10:27:05.841Z,72.40
2018-09-09T10:29:34.753Z,72.40
2018-09-09T10:32:03.588Z,72.00
2018-09-09T10:34:32.467Z,72.10
2018-09-09T10:37:01.371Z,71.70
2018-09-09T10:39:30.201Z,71.60
2018-09-09T10:41:59.097Z,71.50
2018-09-09T10:44:27.929Z,71.70
2018-09-09T10:46:56.829Z,71.60
2018-09-09T10:49:25.699Z,71.10
2018-09-09T10:51:54.517Z,70.70
2018-09-09T10:54:23.345Z,70.50
2018-09-09T10:56:52.280Z,70.30
2018-09-09T10:59:21.098Z,70.80
2018-09-09T11:01:49.931Z,70.80
2018-09-09T11:04:18.838Z,71.00
2018-09-09T11:06:47.859Z,70.90
2018-09-09T11:09:16.882Z,70.70
2018-09-09T11:11:45.710Z,70.50
2018-09-09T11:14:14.638Z,70.80
2018-09-09T11:16:43.668Z,70.60
2018-09-09T11:19:16.125Z,71.00
2018-09-09T11:21:45.222Z,70.90
2018-09-09T11:24:26.102Z,70.90
2018-09-09T11:26:55.047Z,71.20
2018-09-09T11:29:23.949Z,71.30
2018-09-09T11:31:52.768Z,71.00
2018-09-09T11:34:21.633Z,70.90
2018-09-09T11:36:50.464Z,71.60
2018-09-09T11:39:19.309Z,70.50
2018-09-09T11:41:48.186Z,70.50
2018-09-09T11:44:17.047Z,70.10
2018-09-09T11:46:45.885Z,70.60
2018-09-09T11:49:14.756Z,70.10
2018-09-09T11:51:43.576Z,69.80
2018-09-09T11:54:12.392Z,70.30
2018-09-09T11:56:41.272Z,70.30
2018-09-09T11:59:10.513Z,70.50
2018-09-09T12:01:39.422Z,69.80
2018-09-09T12:04:08.569Z,69.80
2018-09-09T12:06:37.549Z,69.50
2018-09-09T12:09:09.575Z,70.40
2018-09-09T12:11:38.549Z,69.60
2018-09-09T12:14:07.976Z,69.60
2018-09-09T12:16:37.361Z,69.10
2018-09-09T12:19:06.455Z,69.00
2018-09-09T12:21:35.285Z,70.10
2018-09-09T12:24:04.119Z,69.80
2018-09-09T12:26:33.092Z,69.60
2018-09-09T12:29:01.933Z,69.60
2018-09-09T12:31:30.993Z,70.00
2018-09-09T12:33:59.911Z,69.80
2018-09-09T12:36:28.792Z,70.00
2018-09-09T12:38:57.749Z,69.50
2018-09-09T12:41:26.567Z,69.70
2018-09-09T12:44:00.785Z,69.80
2018-09-09T12:46:34.728Z,69.70
2018-09-09T12:49:06.276Z,69.80
2018-09-09T12:51:35.092Z,69.60
2018-09-09T12:54:03.947Z,69.80
2018-09-09T12:56:32.829Z,70.70
2018-09-09T12:59:01.677Z,69.70
2018-09-09T13:01:30.704Z,70.50
2018-09-09T13:03:59.705Z,70.70
2018-09-09T13:06:28.568Z,70.90
2018-09-09T13:08:58.388Z,70.50
2018-09-09T13:11:27.289Z,69.70
2018-09-09T13:13:56.250Z,69.60
2018-09-09T13:16:25.181Z,69.60
2018-09-09T13:18:54.126Z,69.60
2018-09-09T13:21:22.971Z,69.40
2018-09-09T13:23:51.892Z,69.20
2018-09-09T13:26:20.789Z,69.00
2018-09-09T13:28:49.639Z,68.80
2018-09-09T13:31:18.561Z,69.30
2018-09-09T13:33:47.437Z,69.60
2018-09-09T13:36:16.320Z,69.20
2018-09-09T13:38:45.277Z,69.20
2018-09-09T13:41:14.306Z,68.90
2018-09-09T13:43:44.312Z,69.10
2018-09-09T13:46:13.225Z,67.90
2018-09-09T13:48:44.555Z,68.90
2018-09-09T13:51:13.501Z,68.80
2018-09-09T13:53:42.419Z,69.00
2018-09-09T13:56:12.274Z,68.40
2018-09-09T13:58:41.124Z,69.60
2018-09-09T14:01:12.814Z,69.10
2018-09-09T14:03:41.758Z,68.20
2018-09-09T14:06:10.580Z,67.50
2018-09-09T14:08:39.500Z,67.50
2018-09-09T14:11:08.385Z,67.10
2018-09-09T14:13:37.400Z,66.90
2018-09-09T14:16:06.226Z,67.10
2018-09-09T14:18:35.185Z,67.30
2018-09-09T14:21:04.130Z,69.20
2018-09-09T14:23:32.966Z,68.30
2018-09-09T14:26:01.808Z,67.70
2018-09-09T14:28:30.730Z,67.60
2018-09-09T14:30:59.570Z,67.60
2018-09-09T14:33:28.500Z,68.40
2018-09-09T14:35:57.442Z,68.90
2018-09-09T14:38:26.609Z,69.00
2018-09-09T14:40:55.531Z,68.30
2018-09-09T14:43:24.420Z,68.70
2018-09-09T14:45:53.398Z,68.80
2018-09-09T14:48:23.126Z,69.20
2018-09-09T14:50:52.055Z,68.60
2018-09-09T14:53:20.972Z,67.90
2018-09-09T14:55:49.820Z,67.70
2018-09-09T14:58:18.703Z,67.50
2018-09-09T15:00:47.525Z,68.60
2018-09-09T15:03:16.401Z,67.30
2018-09-09T15:05:45.582Z,67.60
2018-09-09T15:08:14.479Z,68.00
2018-09-09T15:10:43.331Z,68.10
2018-09-09T15:13:12.312Z,67.50
2018-09-09T15:15:41.147Z,67.50
2018-09-09T15:18:10.143Z,67.60
2018-09-09T15:20:38.976Z,67.30
2018-09-09T15:23:07.840Z,67.70
2018-09-09T15:25:36.714Z,67.60
2018-09-09T15:28:05.568Z,67.60
2018-09-09T15:30:34.639Z,67.70
2018-09-09T15:33:03.928Z,68.10
2018-09-09T15:35:32.742Z,67.80
2018-09-09T15:38:01.705Z,67.70
2018-09-09T15:40:30.690Z,67.60
2018-09-09T15:42:59.519Z,67.60
2018-09-09T15:45:28.503Z,67.40
2018-09-09T15:47:57.427Z,68.40
2018-09-09T15:50:26.295Z,67.60
2018-09-09T15:52:55.196Z,67.70
2018-09-09T15:55:24.038Z,67.70
2018-09-09T15:57:53.012Z,67.60
2018-09-09T16:00:21.880Z,67.70
2018-09-09T16:02:50.865Z,67.70
2018-09-09T16:05:19.732Z,67.50
2018-09-09T16:07:48.676Z,67.60
2018-09-09T16:10:17.496Z,67.80
2018-09-09T16:12:46.481Z,67.80
2018-09-09T16:15:15.459Z,67.70
2018-09-09T16:17:44.498Z,67.30
2018-09-09T16:20:13.414Z,67.80
2018-09-09T16:22:42.259Z,67.90
2018-09-09T16:25:11.129Z,68.00
2018-09-09T16:27:40.005Z,68.00
2018-09-09T16:30:09.461Z,67.90
2018-09-09T16:32:38.304Z,69.00
2018-09-09T16:35:07.176Z,67.90
2018-09-09T16:37:36.188Z,67.70
2018-09-09T16:40:05.695Z,67.30
2018-09-09T16:42:34.589Z,67.40
2018-09-09T16:45:03.551Z,67.10
2018-09-09T16:47:32.444Z,67.20
2018-09-09T16:50:01.274Z,66.70
2018-09-09T16:52:30.204Z,67.00
2018-09-09T16:54:59.071Z,67.00
2018-09-09T16:57:28.080Z,66.80
2018-09-09T16:59:56.910Z,66.90
2018-09-09T17:02:25.739Z,67.00
2018-09-09T17:04:54.598Z,67.00
2018-09-09T17:07:23.519Z,67.10
2018-09-09T17:09:52.411Z,67.30
2018-09-09T17:12:21.352Z,67.70
2018-09-09T17:14:50.284Z,68.10
2018-09-09T17:17:19.384Z,68.30
2018-09-09T17:19:48.280Z,68.50
2018-09-09T17:22:17.195Z,68.30
2018-09-09T17:24:46.185Z,68.30
2018-09-09T17:27:15.005Z,68.30
2018-09-09T17:29:43.903Z,68.40
2018-09-09T17:32:12.744Z,68.40
2018-09-09T17:34:41.666Z,68.50
2018-09-09T17:37:10.589Z,68.80
2018-09-09T17:39:39.452Z,68.90
2018-09-09T17:42:08.387Z,68.80
2018-09-09T17:44:41.303Z,69.20
2018-09-09T17:47:14.829Z,69.40
2018-09-09T17:49:43.745Z,69.50
2018-09-09T17:52:12.699Z,69.20
2018-09-09T17:54:41.717Z,68.60
2018-09-09T17:57:10.679Z,69.50
2018-09-09T17:59:39.516Z,70.50
2018-09-09T18:02:08.475Z,70.70
2018-09-09T18:04:37.695Z,69.90
2018-09-09T18:07:08.566Z,70.00
2018-09-09T19:14:42.288Z,67.90
2018-09-09T19:17:11.135Z,67.90
2018-09-09T19:19:40.011Z,69.70
2018-09-09T19:22:09.119Z,70.80
2018-09-09T19:24:37.990Z,72.40
2018-09-09T19:27:06.989Z,73.50
2018-09-09T19:29:35.956Z,75.20
2018-09-09T19:32:04.833Z,76.20
2018-09-09T19:34:33.849Z,76.70
2018-09-09T19:37:02.848Z,76.70
2018-09-09T19:39:31.703Z,76.70
2018-09-09T19:42:00.678Z,76.40
2018-09-09T19:44:29.581Z,76.00
2018-09-09T19:46:58.464Z,75.90
2018-09-09T19:49:27.379Z,75.50
2018-09-09T19:51:56.227Z,75.60
2018-09-09T19:54:25.131Z,75.70
2018-09-09T19:56:54.084Z,75.80
2018-09-09T19:59:22.933Z,76.00
2018-09-09T20:01:52.280Z,75.70
2018-09-09T20:04:21.155Z,75.00
2018-09-09T20:06:49.974Z,75.20
2018-09-09T20:09:18.918Z,75.30
2018-09-09T20:11:47.828Z,75.90
2018-09-09T20:14:16.962Z,76.10
2018-09-09T20:16:45.854Z,76.30
2018-09-09T20:19:14.832Z,75.50
2018-09-09T20:21:43.747Z,75.30
2018-09-09T20:24:12.653Z,75.30
2018-09-09T20:26:41.528Z,73.30
2018-09-09T20:29:10.443Z,72.70
2018-09-09T20:31:39.455Z,72.90
2018-09-09T20:34:08.440Z,73.90
2018-09-09T20:36:37.277Z,74.30
2018-09-09T20:39:09.079Z,74.30
2018-09-09T20:41:37.978Z,74.80
2018-09-09T20:44:07.206Z,75.10
2018-09-09T20:46:36.185Z,75.30
2018-09-09T20:49:05.311Z,75.70
2018-09-09T20:51:34.341Z,75.80
2018-09-09T20:54:03.211Z,76.00
2018-09-09T20:56:32.057Z,76.60
2018-09-09T20:59:00.969Z,76.50
2018-09-09T21:01:29.832Z,76.80
2018-09-09T21:03:58.760Z,76.90
2018-09-09T21:06:27.668Z,77.70
2018-09-09T21:08:56.509Z,77.40
2018-09-09T21:11:25.335Z,78.30
2018-09-09T21:13:54.281Z,77.90
2018-09-09T21:16:23.128Z,78.00
2018-09-09T21:18:52.047Z,77.80
2018-09-09T21:21:20.999Z,77.90
2018-09-09T21:23:49.844Z,79.00
2018-09-09T21:26:18.719Z,78.30
2018-09-09T21:28:47.658Z,78.10
2018-09-09T21:31:16.492Z,78.40
2018-09-09T21:33:45.334Z,78.40
2018-09-09T21:36:14.250Z,78.60
2018-09-09T21:38:43.117Z,78.60
2018-09-09T21:41:11.966Z,78.40
2018-09-09T21:43:40.877Z,78.50
2018-09-09T21:46:09.770Z,78.40
2018-09-09T21:48:38.625Z,78.80
2018-09-09T21:51:07.532Z,78.60
2018-09-09T21:53:36.572Z,78.80
2018-09-09T21:56:05.421Z,78.80
2018-09-09T21:58:34.329Z,79.00
2018-09-09T22:01:08.294Z,78.80
2018-09-09T22:03:37.238Z,79.00
2018-09-09T22:06:06.096Z,79.00
2018-09-09T22:08:34.976Z,79.20
2018-09-09T22:11:03.859Z,79.00
2018-09-09T22:13:32.756Z,79.20
2018-09-09T22:16:01.599Z,79.50
2018-09-09T22:18:30.496Z,79.40
2018-09-09T22:20:59.408Z,80.20
2018-09-09T22:23:28.281Z,79.20
2018-09-09T22:25:58.026Z,79.70
2018-09-09T22:28:26.867Z,79.20
2018-09-09T22:30:55.722Z,79.40
2018-09-09T22:33:24.700Z,79.50
2018-09-09T22:35:53.567Z,79.50
2018-09-09T22:38:22.447Z,79.60
2018-09-09T22:40:52.227Z,79.60
2018-09-09T22:43:21.966Z,79.40
2018-09-09T22:45:51.696Z,79.40
2018-09-09T22:48:21.000Z,79.40
2018-09-09T22:50:50.567Z,79.80
2018-09-09T22:53:19.461Z,79.70
2018-09-09T22:55:48.443Z,79.60
2018-09-09T22:58:17.299Z,79.60
2018-09-09T23:00:46.188Z,79.80
2018-09-09T23:03:15.066Z,79.90
2018-09-09T23:05:44.009Z,79.70
2018-09-09T23:08:13.264Z,79.80
2018-09-09T23:10:42.159Z,79.90
2018-09-09T23:13:10.997Z,81.00
2018-09-09T23:15:39.955Z,81.80
2018-09-09T23:18:08.800Z,80.30
2018-09-09T23:20:37.639Z,80.30
2018-09-09T23:23:06.607Z,81.30
2018-09-09T23:25:35.497Z,80.90
2018-09-09T23:28:04.435Z,80.90
2018-09-09T23:30:33.375Z,81.60
2018-09-09T23:33:02.247Z,82.30
2018-09-09T23:35:31.071Z,82.20
2018-09-09T23:37:59.960Z,81.30
2018-09-09T23:40:28.830Z,81.70
2018-09-09T23:42:57.684Z,81.40
2018-09-09T23:45:26.586Z,83.10
2018-09-09T23:47:55.424Z,83.30
2018-09-09T23:50:24.274Z,82.60
2018-09-09T23:52:53.177Z,82.90
2018-09-09T23:55:22.055Z,83.00
2018-09-09T23:57:50.974Z,83.00
